sensor_id;sensor_type;location;lat;lon;timestamp;P1;durP1;ratioP1;P2;durP2;ratioP2
68700;SDS011;55682;51.114;5.882;2023-09-30T00:01:41;5.22;;;5.22;;
68700;SDS011;55682;51.114;5.882;2023-09-30T00:04:08;5.02;;;5.01;;
68700;SDS011;55682;51.114;5.882;2023-09-30T00:06:34;5.13;;;5.09;;
68700;SDS011;55682;51.114;5.882;2023-09-30T00:09:00;4.95;;;4.92;;
68700;SDS011;55682;51.114;5.882;2023-09-30T00:11:25;5.22;;;5.07;;
68700;SDS011;55682;51.114;5.882;2023-09-30T00:13:51;4.69;;;4.68;;
68700;SDS011;55682;51.114;5.882;2023-09-30T00:16:17;4.18;;;4.18;;
68700;SDS011;55682;51.114;5.882;2023-09-30T00:18:43;4.14;;;4.14;;
68700;SDS011;55682;51.114;5.882;2023-09-30T00:21:10;3.92;;;3.92;;
68700;SDS011;55682;51.114;5.882;2023-09-30T00:23:36;4.12;;;4.12;;
68700;SDS011;55682;51.114;5.882;2023-09-30T00:26:02;4.23;;;4.23;;
68700;SDS011;55682;51.114;5.882;2023-09-30T00:28:27;4.19;;;4.19;;
68700;SDS011;55682;51.114;5.882;2023-09-30T00:30:53;4.94;;;4.93;;
68700;SDS011;55682;51.114;5.882;2023-09-30T00:33:20;5.00;;;4.97;;
68700;SDS011;55682;51.114;5.882;2023-09-30T00:35:46;4.73;;;4.72;;
68700;SDS011;55682;51.114;5.882;2023-09-30T00:38:12;5.09;;;5.09;;
68700;SDS011;55682;51.114;5.882;2023-09-30T00:40:39;5.13;;;5.13;;
68700;SDS011;55682;51.114;5.882;2023-09-30T00:43:05;4.81;;;4.81;;
68700;SDS011;55682;51.114;5.882;2023-09-30T00:45:31;5.20;;;5.19;;
68700;SDS011;55682;51.114;5.882;2023-09-30T00:47:57;5.17;;;5.16;;
68700;SDS011;55682;51.114;5.882;2023-09-30T00:50:23;5.16;;;5.16;;
68700;SDS011;55682;51.114;5.882;2023-09-30T00:52:49;5.41;;;5.41;;
68700;SDS011;55682;51.114;5.882;2023-09-30T00:55:15;5.46;;;5.45;;
68700;SDS011;55682;51.114;5.882;2023-09-30T00:57:42;5.85;;;5.81;;
68700;SDS011;55682;51.114;5.882;2023-09-30T01:00:09;5.95;;;5.92;;
68700;SDS011;55682;51.114;5.882;2023-09-30T01:02:40;5.88;;;5.87;;
68700;SDS011;55682;51.114;5.882;2023-09-30T01:05:07;5.87;;;5.86;;
68700;SDS011;55682;51.114;5.882;2023-09-30T01:07:34;6.53;;;6.52;;
68700;SDS011;55682;51.114;5.882;2023-09-30T01:10:00;6.53;;;6.50;;
68700;SDS011;55682;51.114;5.882;2023-09-30T01:12:27;7.21;;;7.18;;
68700;SDS011;55682;51.114;5.882;2023-09-30T01:14:59;6.61;;;6.60;;
68700;SDS011;55682;51.114;5.882;2023-09-30T01:17:25;6.94;;;6.94;;
68700;SDS011;55682;51.114;5.882;2023-09-30T01:19:51;7.13;;;7.12;;
68700;SDS011;55682;51.114;5.882;2023-09-30T01:22:17;7.18;;;7.18;;
68700;SDS011;55682;51.114;5.882;2023-09-30T01:24:43;7.28;;;7.25;;
68700;SDS011;55682;51.114;5.882;2023-09-30T01:27:09;7.26;;;7.17;;
68700;SDS011;55682;51.114;5.882;2023-09-30T01:29:35;7.33;;;7.27;;
68700;SDS011;55682;51.114;5.882;2023-09-30T01:32:03;7.70;;;7.57;;
68700;SDS011;55682;51.114;5.882;2023-09-30T01:34:34;6.98;;;6.95;;
68700;SDS011;55682;51.114;5.882;2023-09-30T01:37:00;7.30;;;7.29;;
68700;SDS011;55682;51.114;5.882;2023-09-30T01:39:26;8.02;;;7.96;;
68700;SDS011;55682;51.114;5.882;2023-09-30T01:41:51;7.54;;;7.48;;
68700;SDS011;55682;51.114;5.882;2023-09-30T01:44:17;7.91;;;7.86;;
68700;SDS011;55682;51.114;5.882;2023-09-30T01:46:42;7.40;;;7.38;;
68700;SDS011;55682;51.114;5.882;2023-09-30T01:49:08;7.60;;;7.54;;
68700;SDS011;55682;51.114;5.882;2023-09-30T01:51:35;7.44;;;7.34;;
68700;SDS011;55682;51.114;5.882;2023-09-30T01:54:00;7.44;;;7.35;;
68700;SDS011;55682;51.114;5.882;2023-09-30T01:56:26;7.59;;;7.47;;
68700;SDS011;55682;51.114;5.882;2023-09-30T01:58:52;7.88;;;7.86;;
68700;SDS011;55682;51.114;5.882;2023-09-30T02:01:18;7.93;;;7.89;;
68700;SDS011;55682;51.114;5.882;2023-09-30T02:03:44;8.27;;;8.14;;
68700;SDS011;55682;51.114;5.882;2023-09-30T02:06:09;7.55;;;7.47;;
68700;SDS011;55682;51.114;5.882;2023-09-30T02:08:35;7.89;;;7.81;;
68700;SDS011;55682;51.114;5.882;2023-09-30T02:11:02;7.73;;;7.63;;
68700;SDS011;55682;51.114;5.882;2023-09-30T02:13:33;7.72;;;7.64;;
68700;SDS011;55682;51.114;5.882;2023-09-30T02:16:02;7.58;;;7.54;;
68700;SDS011;55682;51.114;5.882;2023-09-30T02:18:28;7.47;;;7.38;;
68700;SDS011;55682;51.114;5.882;2023-09-30T02:20:53;7.24;;;7.17;;
68700;SDS011;55682;51.114;5.882;2023-09-30T02:23:19;6.93;;;6.84;;
68700;SDS011;55682;51.114;5.882;2023-09-30T02:25:46;6.63;;;6.57;;
68700;SDS011;55682;51.114;5.882;2023-09-30T02:28:12;6.24;;;6.19;;
68700;SDS011;55682;51.114;5.882;2023-09-30T02:30:38;5.98;;;5.91;;
68700;SDS011;55682;51.114;5.882;2023-09-30T02:33:03;5.48;;;5.45;;
68700;SDS011;55682;51.114;5.882;2023-09-30T02:35:30;5.81;;;5.81;;
68700;SDS011;55682;51.114;5.882;2023-09-30T02:37:55;5.93;;;5.90;;
68700;SDS011;55682;51.114;5.882;2023-09-30T02:40:21;6.59;;;6.54;;
68700;SDS011;55682;51.114;5.882;2023-09-30T02:42:50;7.15;;;7.09;;
68700;SDS011;55682;51.114;5.882;2023-09-30T02:45:15;6.98;;;6.94;;
68700;SDS011;55682;51.114;5.882;2023-09-30T02:47:45;6.81;;;6.77;;
68700;SDS011;55682;51.114;5.882;2023-09-30T02:50:12;6.20;;;6.12;;
68700;SDS011;55682;51.114;5.882;2023-09-30T02:52:38;6.11;;;6.03;;
68700;SDS011;55682;51.114;5.882;2023-09-30T02:55:07;5.95;;;5.89;;
68700;SDS011;55682;51.114;5.882;2023-09-30T02:57:37;5.73;;;5.69;;
68700;SDS011;55682;51.114;5.882;2023-09-30T03:00:06;5.71;;;5.71;;
68700;SDS011;55682;51.114;5.882;2023-09-30T03:02:49;5.09;;;5.09;;
68700;SDS011;55682;51.114;5.882;2023-09-30T03:05:16;4.82;;;4.81;;
68700;SDS011;55682;51.114;5.882;2023-09-30T03:07:42;5.06;;;5.06;;
68700;SDS011;55682;51.114;5.882;2023-09-30T03:10:09;5.22;;;5.19;;
68700;SDS011;55682;51.114;5.882;2023-09-30T03:12:35;6.13;;;6.09;;
68700;SDS011;55682;51.114;5.882;2023-09-30T03:15:01;5.67;;;5.65;;
68700;SDS011;55682;51.114;5.882;2023-09-30T03:17:30;5.54;;;5.54;;
68700;SDS011;55682;51.114;5.882;2023-09-30T03:19:57;5.41;;;5.40;;
68700;SDS011;55682;51.114;5.882;2023-09-30T03:22:24;5.82;;;5.80;;
68700;SDS011;55682;51.114;5.882;2023-09-30T03:24:52;5.47;;;5.42;;
68700;SDS011;55682;51.114;5.882;2023-09-30T03:27:19;5.63;;;5.63;;
68700;SDS011;55682;51.114;5.882;2023-09-30T03:29:45;6.07;;;6.03;;
68700;SDS011;55682;51.114;5.882;2023-09-30T03:32:11;7.03;;;6.90;;
68700;SDS011;55682;51.114;5.882;2023-09-30T03:34:37;7.55;;;7.46;;
68700;SDS011;55682;51.114;5.882;2023-09-30T03:37:03;7.51;;;7.45;;
68700;SDS011;55682;51.114;5.882;2023-09-30T03:39:32;6.94;;;6.90;;
68700;SDS011;55682;51.114;5.882;2023-09-30T03:41:57;7.71;;;7.64;;
68700;SDS011;55682;51.114;5.882;2023-09-30T03:44:24;7.82;;;7.73;;
68700;SDS011;55682;51.114;5.882;2023-09-30T03:46:53;8.09;;;8.01;;
68700;SDS011;55682;51.114;5.882;2023-09-30T03:49:19;7.78;;;7.74;;
68700;SDS011;55682;51.114;5.882;2023-09-30T03:51:47;7.15;;;7.06;;
68700;SDS011;55682;51.114;5.882;2023-09-30T03:54:15;7.91;;;7.76;;
68700;SDS011;55682;51.114;5.882;2023-09-30T03:56:43;7.78;;;7.67;;
68700;SDS011;55682;51.114;5.882;2023-09-30T03:59:10;8.17;;;8.07;;
68700;SDS011;55682;51.114;5.882;2023-09-30T04:01:36;7.76;;;7.73;;
68700;SDS011;55682;51.114;5.882;2023-09-30T04:04:06;7.32;;;7.28;;
68700;SDS011;55682;51.114;5.882;2023-09-30T04:06:32;6.68;;;6.64;;
68700;SDS011;55682;51.114;5.882;2023-09-30T04:08:58;6.10;;;6.08;;
68700;SDS011;55682;51.114;5.882;2023-09-30T04:11:24;7.03;;;7.03;;
68700;SDS011;55682;51.114;5.882;2023-09-30T04:13:50;7.36;;;7.28;;
68700;SDS011;55682;51.114;5.882;2023-09-30T04:16:16;7.59;;;7.56;;
68700;SDS011;55682;51.114;5.882;2023-09-30T04:18:44;7.81;;;7.76;;
68700;SDS011;55682;51.114;5.882;2023-09-30T04:21:09;7.99;;;7.90;;
68700;SDS011;55682;51.114;5.882;2023-09-30T04:23:35;8.23;;;8.18;;
68700;SDS011;55682;51.114;5.882;2023-09-30T04:26:03;8.40;;;8.33;;
68700;SDS011;55682;51.114;5.882;2023-09-30T04:28:30;8.48;;;8.44;;
68700;SDS011;55682;51.114;5.882;2023-09-30T04:30:56;8.71;;;8.67;;
68700;SDS011;55682;51.114;5.882;2023-09-30T04:33:21;8.91;;;8.83;;
68700;SDS011;55682;51.114;5.882;2023-09-30T04:35:49;9.05;;;8.94;;
68700;SDS011;55682;51.114;5.882;2023-09-30T04:38:15;9.48;;;9.34;;
68700;SDS011;55682;51.114;5.882;2023-09-30T04:40:40;8.75;;;8.65;;
68700;SDS011;55682;51.114;5.882;2023-09-30T04:43:08;9.05;;;9.01;;
68700;SDS011;55682;51.114;5.882;2023-09-30T04:45:34;9.37;;;9.32;;
68700;SDS011;55682;51.114;5.882;2023-09-30T04:48:00;9.42;;;9.35;;
68700;SDS011;55682;51.114;5.882;2023-09-30T04:50:27;9.23;;;9.11;;
68700;SDS011;55682;51.114;5.882;2023-09-30T04:52:55;9.29;;;9.18;;
68700;SDS011;55682;51.114;5.882;2023-09-30T04:55:21;8.88;;;8.74;;
68700;SDS011;55682;51.114;5.882;2023-09-30T04:57:47;9.30;;;9.14;;
68700;SDS011;55682;51.114;5.882;2023-09-30T05:00:20;9.37;;;9.33;;
68700;SDS011;55682;51.114;5.882;2023-09-30T05:02:50;8.92;;;8.86;;
68700;SDS011;55682;51.114;5.882;2023-09-30T05:05:20;8.98;;;8.92;;
68700;SDS011;55682;51.114;5.882;2023-09-30T05:07:45;9.22;;;9.11;;
68700;SDS011;55682;51.114;5.882;2023-09-30T05:10:12;8.75;;;8.69;;
68700;SDS011;55682;51.114;5.882;2023-09-30T05:12:41;8.94;;;8.94;;
68700;SDS011;55682;51.114;5.882;2023-09-30T05:15:14;8.86;;;8.85;;
68700;SDS011;55682;51.114;5.882;2023-09-30T05:17:41;8.83;;;8.72;;
68700;SDS011;55682;51.114;5.882;2023-09-30T05:20:10;8.45;;;8.35;;
68700;SDS011;55682;51.114;5.882;2023-09-30T05:22:40;8.42;;;8.36;;
68700;SDS011;55682;51.114;5.882;2023-09-30T05:25:10;8.02;;;7.95;;
68700;SDS011;55682;51.114;5.882;2023-09-30T05:27:36;8.59;;;8.52;;
68700;SDS011;55682;51.114;5.882;2023-09-30T05:30:01;8.47;;;8.37;;
68700;SDS011;55682;51.114;5.882;2023-09-30T05:32:27;8.53;;;8.40;;
68700;SDS011;55682;51.114;5.882;2023-09-30T05:34:53;8.01;;;7.96;;
68700;SDS011;55682;51.114;5.882;2023-09-30T05:37:19;7.92;;;7.88;;
68700;SDS011;55682;51.114;5.882;2023-09-30T05:39:47;7.81;;;7.69;;
68700;SDS011;55682;51.114;5.882;2023-09-30T05:42:14;7.09;;;6.99;;
68700;SDS011;55682;51.114;5.882;2023-09-30T05:44:41;7.17;;;7.07;;
68700;SDS011;55682;51.114;5.882;2023-09-30T05:47:08;7.25;;;7.22;;
68700;SDS011;55682;51.114;5.882;2023-09-30T05:49:34;7.93;;;7.90;;
68700;SDS011;55682;51.114;5.882;2023-09-30T05:52:01;8.04;;;8.01;;
68700;SDS011;55682;51.114;5.882;2023-09-30T05:54:27;8.02;;;7.94;;
68700;SDS011;55682;51.114;5.882;2023-09-30T05:56:54;7.83;;;7.81;;
68700;SDS011;55682;51.114;5.882;2023-09-30T05:59:20;7.83;;;7.82;;
68700;SDS011;55682;51.114;5.882;2023-09-30T06:01:46;8.40;;;8.37;;
68700;SDS011;55682;51.114;5.882;2023-09-30T06:04:12;8.46;;;8.35;;
68700;SDS011;55682;51.114;5.882;2023-09-30T06:06:37;8.73;;;8.64;;
68700;SDS011;55682;51.114;5.882;2023-09-30T06:09:04;8.15;;;8.14;;
68700;SDS011;55682;51.114;5.882;2023-09-30T06:11:33;8.12;;;8.12;;
68700;SDS011;55682;51.114;5.882;2023-09-30T06:13:59;7.83;;;7.83;;
68700;SDS011;55682;51.114;5.882;2023-09-30T06:16:26;7.53;;;7.48;;
68700;SDS011;55682;51.114;5.882;2023-09-30T06:18:52;7.10;;;7.02;;
68700;SDS011;55682;51.114;5.882;2023-09-30T06:21:19;7.10;;;7.05;;
68700;SDS011;55682;51.114;5.882;2023-09-30T06:23:48;7.14;;;7.10;;
68700;SDS011;55682;51.114;5.882;2023-09-30T06:26:17;6.88;;;6.80;;
68700;SDS011;55682;51.114;5.882;2023-09-30T06:28:43;6.83;;;6.76;;
68700;SDS011;55682;51.114;5.882;2023-09-30T06:31:10;7.22;;;7.19;;
68700;SDS011;55682;51.114;5.882;2023-09-30T06:33:36;7.61;;;7.61;;
68700;SDS011;55682;51.114;5.882;2023-09-30T06:36:10;7.31;;;7.29;;
68700;SDS011;55682;51.114;5.882;2023-09-30T06:38:39;7.23;;;7.21;;
68700;SDS011;55682;51.114;5.882;2023-09-30T06:41:07;7.36;;;7.35;;
68700;SDS011;55682;51.114;5.882;2023-09-30T06:43:33;7.62;;;7.60;;
68700;SDS011;55682;51.114;5.882;2023-09-30T06:46:06;6.88;;;6.87;;
68700;SDS011;55682;51.114;5.882;2023-09-30T06:48:35;6.56;;;6.56;;
68700;SDS011;55682;51.114;5.882;2023-09-30T06:51:02;6.70;;;6.69;;
68700;SDS011;55682;51.114;5.882;2023-09-30T06:53:28;7.71;;;7.71;;
68700;SDS011;55682;51.114;5.882;2023-09-30T06:55:54;8.41;;;8.39;;
68700;SDS011;55682;51.114;5.882;2023-09-30T06:58:20;8.85;;;8.85;;
68700;SDS011;55682;51.114;5.882;2023-09-30T07:00:49;9.15;;;9.13;;
68700;SDS011;55682;51.114;5.882;2023-09-30T07:03:16;9.10;;;8.92;;
68700;SDS011;55682;51.114;5.882;2023-09-30T07:05:44;7.56;;;7.56;;
68700;SDS011;55682;51.114;5.882;2023-09-30T07:08:10;7.53;;;7.53;;
68700;SDS011;55682;51.114;5.882;2023-09-30T07:10:36;7.21;;;7.21;;
68700;SDS011;55682;51.114;5.882;2023-09-30T07:13:02;6.85;;;6.85;;
68700;SDS011;55682;51.114;5.882;2023-09-30T07:15:29;7.27;;;7.27;;
68700;SDS011;55682;51.114;5.882;2023-09-30T07:17:54;6.64;;;6.64;;
68700;SDS011;55682;51.114;5.882;2023-09-30T07:20:20;6.95;;;6.95;;
68700;SDS011;55682;51.114;5.882;2023-09-30T07:22:47;7.08;;;7.08;;
68700;SDS011;55682;51.114;5.882;2023-09-30T07:25:14;7.08;;;7.08;;
68700;SDS011;55682;51.114;5.882;2023-09-30T07:27:42;7.03;;;7.00;;
68700;SDS011;55682;51.114;5.882;2023-09-30T07:30:08;6.53;;;6.52;;
68700;SDS011;55682;51.114;5.882;2023-09-30T07:32:37;7.56;;;7.56;;
68700;SDS011;55682;51.114;5.882;2023-09-30T07:35:03;7.52;;;7.51;;
68700;SDS011;55682;51.114;5.882;2023-09-30T07:37:29;7.13;;;7.13;;
68700;SDS011;55682;51.114;5.882;2023-09-30T07:39:54;8.39;;;8.39;;
68700;SDS011;55682;51.114;5.882;2023-09-30T07:42:20;7.77;;;7.74;;
68700;SDS011;55682;51.114;5.882;2023-09-30T07:44:47;9.11;;;8.99;;
68700;SDS011;55682;51.114;5.882;2023-09-30T07:47:14;9.41;;;9.33;;
68700;SDS011;55682;51.114;5.882;2023-09-30T07:49:40;9.91;;;9.91;;
68700;SDS011;55682;51.114;5.882;2023-09-30T07:52:05;9.95;;;9.93;;
68700;SDS011;55682;51.114;5.882;2023-09-30T07:54:31;11.15;;;11.05;;
68700;SDS011;55682;51.114;5.882;2023-09-30T07:56:57;11.99;;;11.73;;
68700;SDS011;55682;51.114;5.882;2023-09-30T07:59:24;11.97;;;11.91;;
68700;SDS011;55682;51.114;5.882;2023-09-30T08:01:50;12.68;;;12.67;;
68700;SDS011;55682;51.114;5.882;2023-09-30T08:04:20;11.87;;;11.77;;
68700;SDS011;55682;51.114;5.882;2023-09-30T08:06:46;12.08;;;11.93;;
68700;SDS011;55682;51.114;5.882;2023-09-30T08:09:12;12.77;;;12.72;;
68700;SDS011;55682;51.114;5.882;2023-09-30T08:11:39;12.46;;;12.33;;
68700;SDS011;55682;51.114;5.882;2023-09-30T08:14:05;12.88;;;12.85;;
68700;SDS011;55682;51.114;5.882;2023-09-30T08:16:35;11.66;;;11.60;;
68700;SDS011;55682;51.114;5.882;2023-09-30T08:19:02;12.50;;;12.34;;
68700;SDS011;55682;51.114;5.882;2023-09-30T08:21:29;13.85;;;13.67;;
68700;SDS011;55682;51.114;5.882;2023-09-30T08:23:55;14.10;;;13.89;;
68700;SDS011;55682;51.114;5.882;2023-09-30T08:26:22;14.34;;;14.19;;
68700;SDS011;55682;51.114;5.882;2023-09-30T08:28:48;14.84;;;14.58;;
68700;SDS011;55682;51.114;5.882;2023-09-30T08:31:14;15.79;;;15.45;;
68700;SDS011;55682;51.114;5.882;2023-09-30T08:33:39;17.19;;;16.92;;
68700;SDS011;55682;51.114;5.882;2023-09-30T08:36:08;15.31;;;15.02;;
68700;SDS011;55682;51.114;5.882;2023-09-30T08:38:35;15.23;;;14.94;;
68700;SDS011;55682;51.114;5.882;2023-09-30T08:41:04;16.20;;;15.85;;
68700;SDS011;55682;51.114;5.882;2023-09-30T08:43:34;15.67;;;15.33;;
68700;SDS011;55682;51.114;5.882;2023-09-30T08:46:04;13.95;;;13.62;;
68700;SDS011;55682;51.114;5.882;2023-09-30T08:48:34;13.62;;;13.38;;
68700;SDS011;55682;51.114;5.882;2023-09-30T08:51:00;12.63;;;12.43;;
68700;SDS011;55682;51.114;5.882;2023-09-30T08:53:28;11.93;;;11.78;;
68700;SDS011;55682;51.114;5.882;2023-09-30T08:55:55;11.52;;;11.41;;
68700;SDS011;55682;51.114;5.882;2023-09-30T08:58:24;9.90;;;9.85;;
68700;SDS011;55682;51.114;5.882;2023-09-30T09:00:52;11.07;;;10.96;;
68700;SDS011;55682;51.114;5.882;2023-09-30T09:03:18;10.14;;;9.98;;
68700;SDS011;55682;51.114;5.882;2023-09-30T09:05:45;9.36;;;9.32;;
68700;SDS011;55682;51.114;5.882;2023-09-30T09:08:25;8.50;;;8.48;;
68700;SDS011;55682;51.114;5.882;2023-09-30T09:10:58;8.98;;;8.93;;
68700;SDS011;55682;51.114;5.882;2023-09-30T09:13:26;8.21;;;8.09;;
68700;SDS011;55682;51.114;5.882;2023-09-30T09:16:05;7.71;;;7.69;;
68700;SDS011;55682;51.114;5.882;2023-09-30T09:18:32;7.61;;;7.60;;
68700;SDS011;55682;51.114;5.882;2023-09-30T09:21:11;7.92;;;7.86;;
68700;SDS011;55682;51.114;5.882;2023-09-30T09:26:08;7.85;;;7.85;;
68700;SDS011;55682;51.114;5.882;2023-09-30T09:28:35;7.44;;;7.43;;
68700;SDS011;55682;51.114;5.882;2023-09-30T09:31:24;7.99;;;7.95;;
68700;SDS011;55682;51.114;5.882;2023-09-30T09:33:51;6.80;;;6.79;;
68700;SDS011;55682;51.114;5.882;2023-09-30T09:36:18;6.62;;;6.62;;
68700;SDS011;55682;51.114;5.882;2023-09-30T09:38:50;5.78;;;5.78;;
68700;SDS011;55682;51.114;5.882;2023-09-30T09:41:19;5.83;;;5.83;;
68700;SDS011;55682;51.114;5.882;2023-09-30T09:43:49;5.22;;;5.22;;
68700;SDS011;55682;51.114;5.882;2023-09-30T09:46:16;5.58;;;5.58;;
68700;SDS011;55682;51.114;5.882;2023-09-30T09:48:42;5.49;;;5.49;;
68700;SDS011;55682;51.114;5.882;2023-09-30T09:51:11;5.25;;;5.25;;
68700;SDS011;55682;51.114;5.882;2023-09-30T09:53:38;6.49;;;6.48;;
68700;SDS011;55682;51.114;5.882;2023-09-30T09:56:07;5.65;;;5.65;;
68700;SDS011;55682;51.114;5.882;2023-09-30T09:58:38;5.27;;;5.27;;
68700;SDS011;55682;51.114;5.882;2023-09-30T10:01:06;5.25;;;5.25;;
68700;SDS011;55682;51.114;5.882;2023-09-30T10:03:32;5.62;;;5.62;;
68700;SDS011;55682;51.114;5.882;2023-09-30T10:05:58;5.84;;;5.84;;
68700;SDS011;55682;51.114;5.882;2023-09-30T10:08:31;5.55;;;5.55;;
68700;SDS011;55682;51.114;5.882;2023-09-30T10:11:00;5.84;;;5.84;;
68700;SDS011;55682;51.114;5.882;2023-09-30T10:19:12;5.58;;;5.58;;
68700;SDS011;55682;51.114;5.882;2023-09-30T10:21:39;5.50;;;5.50;;
68700;SDS011;55682;51.114;5.882;2023-09-30T10:29:57;5.36;;;5.36;;
68700;SDS011;55682;51.114;5.882;2023-09-30T10:35:15;5.14;;;5.11;;
68700;SDS011;55682;51.114;5.882;2023-09-30T10:37:44;4.99;;;4.99;;
68700;SDS011;55682;51.114;5.882;2023-09-30T10:40:26;5.40;;;5.40;;
68700;SDS011;55682;51.114;5.882;2023-09-30T10:42:53;5.34;;;5.34;;
68700;SDS011;55682;51.114;5.882;2023-09-30T10:53:23;4.71;;;4.71;;
68700;SDS011;55682;51.114;5.882;2023-09-30T10:55:53;4.60;;;4.60;;
68700;SDS011;55682;51.114;5.882;2023-09-30T11:01:17;4.65;;;4.65;;
68700;SDS011;55682;51.114;5.882;2023-09-30T11:03:47;5.05;;;5.05;;
68700;SDS011;55682;51.114;5.882;2023-09-30T11:06:17;4.14;;;4.14;;
68700;SDS011;55682;51.114;5.882;2023-09-30T11:08:48;4.66;;;4.66;;
68700;SDS011;55682;51.114;5.882;2023-09-30T11:11:31;4.51;;;4.51;;
68700;SDS011;55682;51.114;5.882;2023-09-30T11:16:53;4.56;;;4.56;;
68700;SDS011;55682;51.114;5.882;2023-09-30T11:19:20;4.37;;;4.37;;
68700;SDS011;55682;51.114;5.882;2023-09-30T11:21:51;5.02;;;5.02;;
68700;SDS011;55682;51.114;5.882;2023-09-30T11:24:18;3.71;;;3.71;;
68700;SDS011;55682;51.114;5.882;2023-09-30T11:26:45;3.89;;;3.89;;
68700;SDS011;55682;51.114;5.882;2023-09-30T11:29:12;4.35;;;4.35;;
68700;SDS011;55682;51.114;5.882;2023-09-30T11:31:46;3.65;;;3.65;;
68700;SDS011;55682;51.114;5.882;2023-09-30T11:34:13;3.96;;;3.96;;
68700;SDS011;55682;51.114;5.882;2023-09-30T11:36:47;3.78;;;3.78;;
68700;SDS011;55682;51.114;5.882;2023-09-30T11:39:30;3.89;;;3.89;;
68700;SDS011;55682;51.114;5.882;2023-09-30T11:41:56;3.72;;;3.72;;
68700;SDS011;55682;51.114;5.882;2023-09-30T11:44:25;2.91;;;2.91;;
68700;SDS011;55682;51.114;5.882;2023-09-30T11:46:58;3.64;;;3.63;;
68700;SDS011;55682;51.114;5.882;2023-09-30T11:51:53;3.42;;;3.42;;
68700;SDS011;55682;51.114;5.882;2023-09-30T11:54:19;3.96;;;3.96;;
68700;SDS011;55682;51.114;5.882;2023-09-30T11:56:44;3.58;;;3.58;;
68700;SDS011;55682;51.114;5.882;2023-09-30T11:59:12;3.30;;;3.30;;
68700;SDS011;55682;51.114;5.882;2023-09-30T12:01:38;3.96;;;3.96;;
68700;SDS011;55682;51.114;5.882;2023-09-30T12:04:04;3.27;;;3.27;;
68700;SDS011;55682;51.114;5.882;2023-09-30T12:06:31;2.81;;;2.81;;
68700;SDS011;55682;51.114;5.882;2023-09-30T12:08:59;2.83;;;2.83;;
68700;SDS011;55682;51.114;5.882;2023-09-30T12:11:25;3.00;;;3.00;;
68700;SDS011;55682;51.114;5.882;2023-09-30T12:13:51;2.73;;;2.73;;
68700;SDS011;55682;51.114;5.882;2023-09-30T12:16:17;2.74;;;2.74;;
68700;SDS011;55682;51.114;5.882;2023-09-30T12:18:43;2.87;;;2.87;;
68700;SDS011;55682;51.114;5.882;2023-09-30T12:21:09;2.77;;;2.77;;
68700;SDS011;55682;51.114;5.882;2023-09-30T12:23:36;2.72;;;2.72;;
68700;SDS011;55682;51.114;5.882;2023-09-30T12:26:02;2.57;;;2.57;;
68700;SDS011;55682;51.114;5.882;2023-09-30T12:28:31;2.78;;;2.78;;
68700;SDS011;55682;51.114;5.882;2023-09-30T12:30:57;2.45;;;2.45;;
68700;SDS011;55682;51.114;5.882;2023-09-30T12:33:24;2.65;;;2.65;;
68700;SDS011;55682;51.114;5.882;2023-09-30T12:35:49;2.57;;;2.57;;
68700;SDS011;55682;51.114;5.882;2023-09-30T12:38:16;2.53;;;2.52;;
68700;SDS011;55682;51.114;5.882;2023-09-30T12:40:42;2.66;;;2.66;;
68700;SDS011;55682;51.114;5.882;2023-09-30T12:43:09;2.74;;;2.74;;
68700;SDS011;55682;51.114;5.882;2023-09-30T12:45:35;2.72;;;2.72;;
68700;SDS011;55682;51.114;5.882;2023-09-30T12:48:03;2.55;;;2.55;;
68700;SDS011;55682;51.114;5.882;2023-09-30T12:50:29;2.65;;;2.65;;
68700;SDS011;55682;51.114;5.882;2023-09-30T12:52:55;2.64;;;2.64;;
68700;SDS011;55682;51.114;5.882;2023-09-30T12:55:21;2.54;;;2.54;;
68700;SDS011;55682;51.114;5.882;2023-09-30T12:57:46;2.59;;;2.59;;
68700;SDS011;55682;51.114;5.882;2023-09-30T13:00:13;2.48;;;2.48;;
68700;SDS011;55682;51.114;5.882;2023-09-30T13:02:41;3.09;;;3.09;;
68700;SDS011;55682;51.114;5.882;2023-09-30T13:05:07;2.85;;;2.85;;
68700;SDS011;55682;51.114;5.882;2023-09-30T13:07:33;3.04;;;3.04;;
68700;SDS011;55682;51.114;5.882;2023-09-30T13:09:59;3.11;;;3.11;;
68700;SDS011;55682;51.114;5.882;2023-09-30T13:12:26;2.98;;;2.98;;
68700;SDS011;55682;51.114;5.882;2023-09-30T13:14:52;2.95;;;2.95;;
68700;SDS011;55682;51.114;5.882;2023-09-30T13:17:22;2.40;;;2.40;;
68700;SDS011;55682;51.114;5.882;2023-09-30T13:19:49;2.71;;;2.71;;
68700;SDS011;55682;51.114;5.882;2023-09-30T13:22:15;3.15;;;3.15;;
68700;SDS011;55682;51.114;5.882;2023-09-30T13:24:41;2.64;;;2.64;;
68700;SDS011;55682;51.114;5.882;2023-09-30T13:27:07;2.74;;;2.74;;
68700;SDS011;55682;51.114;5.882;2023-09-30T13:29:33;2.66;;;2.66;;
68700;SDS011;55682;51.114;5.882;2023-09-30T13:31:59;2.65;;;2.65;;
68700;SDS011;55682;51.114;5.882;2023-09-30T13:34:25;2.77;;;2.77;;
68700;SDS011;55682;51.114;5.882;2023-09-30T13:36:51;2.82;;;2.82;;
68700;SDS011;55682;51.114;5.882;2023-09-30T13:39:16;2.50;;;2.50;;
68700;SDS011;55682;51.114;5.882;2023-09-30T13:41:43;2.77;;;2.77;;
68700;SDS011;55682;51.114;5.882;2023-09-30T13:44:09;3.10;;;3.10;;
68700;SDS011;55682;51.114;5.882;2023-09-30T13:46:37;2.61;;;2.61;;
68700;SDS011;55682;51.114;5.882;2023-09-30T13:49:02;2.93;;;2.93;;
68700;SDS011;55682;51.114;5.882;2023-09-30T13:51:29;3.13;;;3.13;;
68700;SDS011;55682;51.114;5.882;2023-09-30T13:53:54;3.33;;;3.32;;
68700;SDS011;55682;51.114;5.882;2023-09-30T13:56:20;3.35;;;3.33;;
68700;SDS011;55682;51.114;5.882;2023-09-30T13:58:46;3.39;;;3.37;;
68700;SDS011;55682;51.114;5.882;2023-09-30T14:01:14;3.27;;;3.24;;
68700;SDS011;55682;51.114;5.882;2023-09-30T14:03:40;2.87;;;2.87;;
68700;SDS011;55682;51.114;5.882;2023-09-30T14:06:13;3.56;;;3.56;;
68700;SDS011;55682;51.114;5.882;2023-09-30T14:08:40;3.43;;;3.43;;
68700;SDS011;55682;51.114;5.882;2023-09-30T14:11:09;3.81;;;3.81;;
68700;SDS011;55682;51.114;5.882;2023-09-30T14:13:37;3.48;;;3.48;;
68700;SDS011;55682;51.114;5.882;2023-09-30T14:16:04;3.43;;;3.43;;
68700;SDS011;55682;51.114;5.882;2023-09-30T14:18:30;3.68;;;3.68;;
68700;SDS011;55682;51.114;5.882;2023-09-30T14:20:56;3.64;;;3.64;;
68700;SDS011;55682;51.114;5.882;2023-09-30T14:23:22;3.22;;;3.22;;
68700;SDS011;55682;51.114;5.882;2023-09-30T14:25:49;3.22;;;3.22;;
68700;SDS011;55682;51.114;5.882;2023-09-30T14:28:14;3.40;;;3.40;;
68700;SDS011;55682;51.114;5.882;2023-09-30T14:30:40;2.95;;;2.95;;
68700;SDS011;55682;51.114;5.882;2023-09-30T14:33:05;3.30;;;3.30;;
68700;SDS011;55682;51.114;5.882;2023-09-30T14:35:34;3.33;;;3.33;;
68700;SDS011;55682;51.114;5.882;2023-09-30T14:38:00;3.34;;;3.34;;
68700;SDS011;55682;51.114;5.882;2023-09-30T14:40:28;3.33;;;3.33;;
68700;SDS011;55682;51.114;5.882;2023-09-30T14:42:53;3.32;;;3.32;;
68700;SDS011;55682;51.114;5.882;2023-09-30T14:45:19;3.41;;;3.41;;
68700;SDS011;55682;51.114;5.882;2023-09-30T14:47:46;3.42;;;3.42;;
68700;SDS011;55682;51.114;5.882;2023-09-30T14:50:13;3.24;;;3.24;;
68700;SDS011;55682;51.114;5.882;2023-09-30T14:52:38;3.49;;;3.49;;
68700;SDS011;55682;51.114;5.882;2023-09-30T14:55:05;3.48;;;3.48;;
68700;SDS011;55682;51.114;5.882;2023-09-30T14:57:31;3.36;;;3.35;;
68700;SDS011;55682;51.114;5.882;2023-09-30T14:59:57;3.56;;;3.53;;
68700;SDS011;55682;51.114;5.882;2023-09-30T15:02:24;3.68;;;3.66;;
68700;SDS011;55682;51.114;5.882;2023-09-30T15:04:51;3.48;;;3.47;;
68700;SDS011;55682;51.114;5.882;2023-09-30T15:07:17;3.29;;;3.28;;
68700;SDS011;55682;51.114;5.882;2023-09-30T15:09:44;3.11;;;3.10;;
68700;SDS011;55682;51.114;5.882;2023-09-30T15:12:09;3.13;;;3.10;;
68700;SDS011;55682;51.114;5.882;2023-09-30T15:14:35;2.91;;;2.89;;
68700;SDS011;55682;51.114;5.882;2023-09-30T15:17:00;2.60;;;2.59;;
68700;SDS011;55682;51.114;5.882;2023-09-30T15:19:26;2.91;;;2.89;;